sensor_id;sensor_type;location;lat;lon;timestamp;temperature;humidity
13375;DHT22;6756;51.354;15.754;2023-06-26T00:01:07;15.40;99.90
13375;DHT22;6756;51.354;15.754;2023-06-26T00:05:08;15.40;99.90
13375;DHT22;6756;51.354;15.754;2023-06-26T00:09:09;15.30;1.00
13375;DHT22;6756;51.354;15.754;2023-06-26T00:13:10;15.20;33.90
13375;DHT22;6756;51.354;15.754;2023-06-26T00:17:12;15.10;99.90
13375;DHT22;6756;51.354;15.754;2023-06-26T00:21:13;15.00;99.90
13375;DHT22;6756;51.354;15.754;2023-06-26T00:25:14;15.00;1.00
13375;DHT22;6756;51.354;15.754;2023-06-26T00:29:15;14.90;99.90
13375;DHT22;6756;51.354;15.754;2023-06-26T00:33:16;14.80;99.90
13375;DHT22;6756;51.354;15.754;2023-06-26T00:37:17;14.80;99.90
13375;DHT22;6756;51.354;15.754;2023-06-26T00:41:19;14.70;99.90
13375;DHT22;6756;51.354;15.754;2023-06-26T00:45:20;14.60;1.00
13375;DHT22;6756;51.354;15.754;2023-06-26T00:49:21;14.50;17.40
13375;DHT22;6756;51.354;15.754;2023-06-26T00:53:22;14.50;1.00
13375;DHT22;6756;51.354;15.754;2023-06-26T00:57:23;14.40;52.70
13375;DHT22;6756;51.354;15.754;2023-06-26T01:01:25;14.40;1.00
13375;DHT22;6756;51.354;15.754;2023-06-26T01:05:27;14.40;99.90
13375;DHT22;6756;51.354;15.754;2023-06-26T01:09:29;14.30;99.90
13375;DHT22;6756;51.354;15.754;2023-06-26T01:13:31;14.30;99.90
13375;DHT22;6756;51.354;15.754;2023-06-26T01:17:32;14.20;1.00
13375;DHT22;6756;51.354;15.754;2023-06-26T01:21:33;14.10;99.90
13375;DHT22;6756;51.354;15.754;2023-06-26T01:30:03;14.00;99.90
13375;DHT22;6756;51.354;15.754;2023-06-26T01:34:04;14.00;99.90
13375;DHT22;6756;51.354;15.754;2023-06-26T01:38:13;14.00;99.90
13375;DHT22;6756;51.354;15.754;2023-06-26T01:42:14;14.00;99.90
13375;DHT22;6756;51.354;15.754;2023-06-26T01:47:06;14.00;99.90
13375;DHT22;6756;51.354;15.754;2023-06-26T01:51:05;14.10;99.90
13375;DHT22;6756;51.354;15.754;2023-06-26T01:55:15;14.10;99.90
13375;DHT22;6756;51.354;15.754;2023-06-26T01:59:18;14.10;99.90
13375;DHT22;6756;51.354;15.754;2023-06-26T02:03:20;14.10;99.90
13375;DHT22;6756;51.354;15.754;2023-06-26T02:07:21;14.10;99.90
13375;DHT22;6756;51.354;15.754;2023-06-26T02:11:22;14.20;99.90
13375;DHT22;6756;51.354;15.754;2023-06-26T02:15:23;14.30;99.90
13375;DHT22;6756;51.354;15.754;2023-06-26T02:19:24;14.30;99.90
13375;DHT22;6756;51.354;15.754;2023-06-26T02:23:25;14.30;99.90
13375;DHT22;6756;51.354;15.754;2023-06-26T02:27:26;14.40;99.90
13375;DHT22;6756;51.354;15.754;2023-06-26T02:31:27;14.40;99.90
13375;DHT22;6756;51.354;15.754;2023-06-26T02:35:28;14.50;99.90
13375;DHT22;6756;51.354;15.754;2023-06-26T02:39:29;14.50;99.90
13375;DHT22;6756;51.354;15.754;2023-06-26T02:43:30;14.60;99.90
13375;DHT22;6756;51.354;15.754;2023-06-26T02:47:31;14.70;99.90
13375;DHT22;6756;51.354;15.754;2023-06-26T02:51:35;14.80;99.90
13375;DHT22;6756;51.354;15.754;2023-06-26T02:55:36;15.00;99.90
13375;DHT22;6756;51.354;15.754;2023-06-26T02:59:37;15.10;99.90
13375;DHT22;6756;51.354;15.754;2023-06-26T03:03:41;15.20;99.90
13375;DHT22;6756;51.354;15.754;2023-06-26T03:07:42;15.40;99.90
13375;DHT22;6756;51.354;15.754;2023-06-26T03:11:43;15.50;99.90
13375;DHT22;6756;51.354;15.754;2023-06-26T03:15:44;15.60;99.90
13375;DHT22;6756;51.354;15.754;2023-06-26T03:19:45;15.70;99.90
13375;DHT22;6756;51.354;15.754;2023-06-26T03:23:46;15.80;99.90
13375;DHT22;6756;51.354;15.754;2023-06-26T03:27:47;15.90;99.90
13375;DHT22;6756;51.354;15.754;2023-06-26T03:31:48;16.00;99.90
13375;DHT22;6756;51.354;15.754;2023-06-26T03:35:49;16.00;99.90
13375;DHT22;6756;51.354;15.754;2023-06-26T03:39:50;16.10;99.90
13375;DHT22;6756;51.354;15.754;2023-06-26T03:43:51;16.10;99.90
13375;DHT22;6756;51.354;15.754;2023-06-26T03:47:52;16.30;99.90
13375;DHT22;6756;51.354;15.754;2023-06-26T03:51:53;16.30;99.90
13375;DHT22;6756;51.354;15.754;2023-06-26T03:55:54;16.40;99.90
13375;DHT22;6756;51.354;15.754;2023-06-26T03:59:55;16.60;99.90
13375;DHT22;6756;51.354;15.754;2023-06-26T04:03:56;16.80;99.90
13375;DHT22;6756;51.354;15.754;2023-06-26T04:07:57;16.90;1.00
13375;DHT22;6756;51.354;15.754;2023-06-26T04:12:02;17.20;99.90
13375;DHT22;6756;51.354;15.754;2023-06-26T04:16:03;17.40;99.90
13375;DHT22;6756;51.354;15.754;2023-06-26T04:20:05;17.60;31.60
13375;DHT22;6756;51.354;15.754;2023-06-26T04:24:09;17.70;1.00
13375;DHT22;6756;51.354;15.754;2023-06-26T04:28:10;17.80;1.00
13375;DHT22;6756;51.354;15.754;2023-06-26T04:32:16;18.00;99.90
13375;DHT22;6756;51.354;15.754;2023-06-26T04:36:20;18.10;99.90
13375;DHT22;6756;51.354;15.754;2023-06-26T04:40:21;18.30;1.00
13375;DHT22;6756;51.354;15.754;2023-06-26T04:44:22;18.50;1.00
13375;DHT22;6756;51.354;15.754;2023-06-26T04:48:23;18.70;99.90
13375;DHT22;6756;51.354;15.754;2023-06-26T04:52:24;18.90;99.90
13375;DHT22;6756;51.354;15.754;2023-06-26T04:56:24;19.10;99.90
13375;DHT22;6756;51.354;15.754;2023-06-26T05:00:25;19.20;99.90
13375;DHT22;6756;51.354;15.754;2023-06-26T05:04:26;19.30;99.90
13375;DHT22;6756;51.354;15.754;2023-06-26T05:08:27;19.40;56.40
13375;DHT22;6756;51.354;15.754;2023-06-26T05:12:28;19.50;35.20
13375;DHT22;6756;51.354;15.754;2023-06-26T05:16:29;19.60;1.00
13375;DHT22;6756;51.354;15.754;2023-06-26T05:20:30;19.80;1.00
13375;DHT22;6756;51.354;15.754;2023-06-26T05:24:37;19.90;1.00
13375;DHT22;6756;51.354;15.754;2023-06-26T05:28:39;20.00;1.00
13375;DHT22;6756;51.354;15.754;2023-06-26T05:32:40;20.20;1.00
13375;DHT22;6756;51.354;15.754;2023-06-26T05:36:42;20.40;1.00
13375;DHT22;6756;51.354;15.754;2023-06-26T05:40:44;20.60;1.00
13375;DHT22;6756;51.354;15.754;2023-06-26T05:44:45;20.90;1.00
13375;DHT22;6756;51.354;15.754;2023-06-26T05:48:45;21.10;1.00
13375;DHT22;6756;51.354;15.754;2023-06-26T05:52:48;21.40;1.00
13375;DHT22;6756;51.354;15.754;2023-06-26T05:56:51;21.60;1.00
13375;DHT22;6756;51.354;15.754;2023-06-26T06:00:56;21.80;1.00
13375;DHT22;6756;51.354;15.754;2023-06-26T06:04:57;22.10;1.00
13375;DHT22;6756;51.354;15.754;2023-06-26T06:08:58;22.30;1.00
13375;DHT22;6756;51.354;15.754;2023-06-26T06:12:59;22.60;1.00
13375;DHT22;6756;51.354;15.754;2023-06-26T06:17:00;22.90;1.00
13375;DHT22;6756;51.354;15.754;2023-06-26T06:21:02;23.20;1.00
13375;DHT22;6756;51.354;15.754;2023-06-26T06:25:03;23.50;99.90
13375;DHT22;6756;51.354;15.754;2023-06-26T06:29:04;23.70;99.90
13375;DHT22;6756;51.354;15.754;2023-06-26T06:33:05;23.90;99.90
13375;DHT22;6756;51.354;15.754;2023-06-26T06:37:06;24.20;99.90
13375;DHT22;6756;51.354;15.754;2023-06-26T06:41:10;24.30;99.90
13375;DHT22;6756;51.354;15.754;2023-06-26T06:45:11;24.60;99.90
13375;DHT22;6756;51.354;15.754;2023-06-26T06:49:12;24.90;99.90
13375;DHT22;6756;51.354;15.754;2023-06-26T06:53:13;25.10;99.90
13375;DHT22;6756;51.354;15.754;2023-06-26T06:57:15;25.30;99.90
13375;DHT22;6756;51.354;15.754;2023-06-26T07:01:16;25.40;99.90
13375;DHT22;6756;51.354;15.754;2023-06-26T07:05:18;25.30;99.90
13375;DHT22;6756;51.354;15.754;2023-06-26T07:09:18;25.30;99.90
13375;DHT22;6756;51.354;15.754;2023-06-26T07:13:19;25.30;99.90
13375;DHT22;6756;51.354;15.754;2023-06-26T07:17:20;25.20;99.90
13375;DHT22;6756;51.354;15.754;2023-06-26T07:21:24;25.10;99.90
13375;DHT22;6756;51.354;15.754;2023-06-26T07:25:26;25.20;99.90
13375;DHT22;6756;51.354;15.754;2023-06-26T07:29:27;25.00;99.90
13375;DHT22;6756;51.354;15.754;2023-06-26T07:33:28;25.00;99.90
13375;DHT22;6756;51.354;15.754;2023-06-26T07:37:29;24.90;99.90
13375;DHT22;6756;51.354;15.754;2023-06-26T07:41:30;24.80;99.90
13375;DHT22;6756;51.354;15.754;2023-06-26T07:45:32;24.80;99.90
13375;DHT22;6756;51.354;15.754;2023-06-26T07:49:32;25.00;99.90
13375;DHT22;6756;51.354;15.754;2023-06-26T07:53:33;24.90;99.90
13375;DHT22;6756;51.354;15.754;2023-06-26T07:57:35;24.90;99.90
13375;DHT22;6756;51.354;15.754;2023-06-26T08:01:36;25.10;99.90
13375;DHT22;6756;51.354;15.754;2023-06-26T08:05:41;25.20;99.90
13375;DHT22;6756;51.354;15.754;2023-06-26T08:09:45;25.20;99.90
13375;DHT22;6756;51.354;15.754;2023-06-26T08:13:46;25.20;99.90
13375;DHT22;6756;51.354;15.754;2023-06-26T08:17:47;25.20;99.90
13375;DHT22;6756;51.354;15.754;2023-06-26T08:21:48;25.40;99.90
13375;DHT22;6756;51.354;15.754;2023-06-26T08:25:49;25.80;99.90
13375;DHT22;6756;51.354;15.754;2023-06-26T08:29:50;26.10;99.90
13375;DHT22;6756;51.354;15.754;2023-06-26T08:33:51;26.30;99.90
13375;DHT22;6756;51.354;15.754;2023-06-26T08:37:53;26.20;99.90
13375;DHT22;6756;51.354;15.754;2023-06-26T08:41:55;26.30;99.90
13375;DHT22;6756;51.354;15.754;2023-06-26T08:45:56;26.50;99.90
13375;DHT22;6756;51.354;15.754;2023-06-26T08:50:12;26.40;99.90
13375;DHT22;6756;51.354;15.754;2023-06-26T08:54:15;26.50;99.90
13375;DHT22;6756;51.354;15.754;2023-06-26T08:58:18;26.40;99.90
13375;DHT22;6756;51.354;15.754;2023-06-26T09:02:19;26.50;99.90
13375;DHT22;6756;51.354;15.754;2023-06-26T09:06:21;26.80;99.90
13375;DHT22;6756;51.354;15.754;2023-06-26T09:10:23;26.90;99.90
13375;DHT22;6756;51.354;15.754;2023-06-26T09:14:24;27.10;99.90
13375;DHT22;6756;51.354;15.754;2023-06-26T09:18:25;27.40;99.90
13375;DHT22;6756;51.354;15.754;2023-06-26T09:22:26;27.70;99.90
13375;DHT22;6756;51.354;15.754;2023-06-26T09:26:27;27.80;99.90
13375;DHT22;6756;51.354;15.754;2023-06-26T09:30:28;27.90;99.90
13375;DHT22;6756;51.354;15.754;2023-06-26T09:34:35;28.00;99.90
13375;DHT22;6756;51.354;15.754;2023-06-26T09:38:38;28.20;99.90
13375;DHT22;6756;51.354;15.754;2023-06-26T09:42:39;28.60;99.90
13375;DHT22;6756;51.354;15.754;2023-06-26T09:46:40;28.90;99.90
13375;DHT22;6756;51.354;15.754;2023-06-26T09:50:42;29.00;99.90
13375;DHT22;6756;51.354;15.754;2023-06-26T09:54:45;29.00;99.90
13375;DHT22;6756;51.354;15.754;2023-06-26T09:58:47;29.10;99.90
13375;DHT22;6756;51.354;15.754;2023-06-26T10:02:49;29.40;99.90
13375;DHT22;6756;51.354;15.754;2023-06-26T10:06:51;29.10;99.90
13375;DHT22;6756;51.354;15.754;2023-06-26T10:10:54;29.40;99.90
13375;DHT22;6756;51.354;15.754;2023-06-26T10:14:57;29.90;99.90
13375;DHT22;6756;51.354;15.754;2023-06-26T10:19:05;30.40;99.90
13375;DHT22;6756;51.354;15.754;2023-06-26T10:23:07;30.70;99.90
13375;DHT22;6756;51.354;15.754;2023-06-26T10:27:16;31.20;99.90
13375;DHT22;6756;51.354;15.754;2023-06-26T10:31:23;31.60;99.90
13375;DHT22;6756;51.354;15.754;2023-06-26T10:35:26;31.70;99.90
13375;DHT22;6756;51.354;15.754;2023-06-26T10:43:49;32.00;99.90
13375;DHT22;6756;51.354;15.754;2023-06-26T10:47:54;32.10;99.90
13375;DHT22;6756;51.354;15.754;2023-06-26T10:51:56;32.20;99.90
13375;DHT22;6756;51.354;15.754;2023-06-26T10:56:05;32.40;99.90
13375;DHT22;6756;51.354;15.754;2023-06-26T11:00:13;32.50;99.90
13375;DHT22;6756;51.354;15.754;2023-06-26T11:04:15;32.30;99.90
13375;DHT22;6756;51.354;15.754;2023-06-26T11:08:17;32.00;99.90
13375;DHT22;6756;51.354;15.754;2023-06-26T11:12:42;32.30;99.90
13375;DHT22;6756;51.354;15.754;2023-06-26T11:16:43;32.40;99.90
13375;DHT22;6756;51.354;15.754;2023-06-26T11:20:44;32.40;99.90
13375;DHT22;6756;51.354;15.754;2023-06-26T11:24:45;32.50;99.90
13375;DHT22;6756;51.354;15.754;2023-06-26T11:28:50;32.40;99.90
13375;DHT22;6756;51.354;15.754;2023-06-26T11:32:52;32.40;99.90
13375;DHT22;6756;51.354;15.754;2023-06-26T11:36:56;32.60;99.90
13375;DHT22;6756;51.354;15.754;2023-06-26T11:40:57;32.40;99.90
13375;DHT22;6756;51.354;15.754;2023-06-26T11:45:01;32.40;99.90
13375;DHT22;6756;51.354;15.754;2023-06-26T11:49:06;32.40;99.90
13375;DHT22;6756;51.354;15.754;2023-06-26T11:53:07;32.30;99.90
13375;DHT22;6756;51.354;15.754;2023-06-26T11:57:12;31.80;99.90
13375;DHT22;6756;51.354;15.754;2023-06-26T12:01:20;31.90;99.90
13375;DHT22;6756;51.354;15.754;2023-06-26T12:05:23;32.10;99.90
13375;DHT22;6756;51.354;15.754;2023-06-26T12:09:25;32.00;99.90
13375;DHT22;6756;51.354;15.754;2023-06-26T12:13:26;32.10;99.90
13375;DHT22;6756;51.354;15.754;2023-06-26T12:17:30;32.30;99.90
13375;DHT22;6756;51.354;15.754;2023-06-26T12:25:38;32.30;99.90
13375;DHT22;6756;51.354;15.754;2023-06-26T12:29:45;32.20;99.90
13375;DHT22;6756;51.354;15.754;2023-06-26T12:33:48;32.10;99.90
13375;DHT22;6756;51.354;15.754;2023-06-26T12:37:49;31.80;99.90
13375;DHT22;6756;51.354;15.754;2023-06-26T12:41:57;31.80;99.90
13375;DHT22;6756;51.354;15.754;2023-06-26T12:46:00;31.80;99.90
13375;DHT22;6756;51.354;15.754;2023-06-26T12:50:05;31.80;99.90
13375;DHT22;6756;51.354;15.754;2023-06-26T12:54:06;31.40;99.90
13375;DHT22;6756;51.354;15.754;2023-06-26T12:58:08;31.40;99.90
13375;DHT22;6756;51.354;15.754;2023-06-26T13:02:09;31.60;99.90
13375;DHT22;6756;51.354;15.754;2023-06-26T13:06:11;31.40;99.90
13375;DHT22;6756;51.354;15.754;2023-06-26T13:10:14;31.10;99.90
13375;DHT22;6756;51.354;15.754;2023-06-26T13:14:15;30.60;99.90
13375;DHT22;6756;51.354;15.754;2023-06-26T13:18:17;30.40;99.90
13375;DHT22;6756;51.354;15.754;2023-06-26T13:22:17;30.50;99.90
13375;DHT22;6756;51.354;15.754;2023-06-26T13:26:19;30.50;99.90
13375;DHT22;6756;51.354;15.754;2023-06-26T13:30:25;30.50;99.90
13375;DHT22;6756;51.354;15.754;2023-06-26T13:34:27;30.70;99.90
13375;DHT22;6756;51.354;15.754;2023-06-26T13:38:29;31.10;99.90
13375;DHT22;6756;51.354;15.754;2023-06-26T13:42:30;31.60;99.90
13375;DHT22;6756;51.354;15.754;2023-06-26T13:46:37;31.70;99.90
13375;DHT22;6756;51.354;15.754;2023-06-26T13:50:38;31.50;99.90
13375;DHT22;6756;51.354;15.754;2023-06-26T13:54:39;31.30;99.90
13375;DHT22;6756;51.354;15.754;2023-06-26T13:58:41;31.50;99.90
13375;DHT22;6756;51.354;15.754;2023-06-26T14:02:42;31.40;99.90
13375;DHT22;6756;51.354;15.754;2023-06-26T14:06:43;31.30;99.90
13375;DHT22;6756;51.354;15.754;2023-06-26T14:10:46;31.70;99.90
13375;DHT22;6756;51.354;15.754;2023-06-26T14:14:46;31.90;99.90
13375;DHT22;6756;51.354;15.754;2023-06-26T14:18:48;31.90;99.90
13375;DHT22;6756;51.354;15.754;2023-06-26T14:22:49;31.80;99.90
13375;DHT22;6756;51.354;15.754;2023-06-26T14:26:50;31.60;99.90
13375;DHT22;6756;51.354;15.754;2023-06-26T14:30:51;31.40;99.90
13375;DHT22;6756;51.354;15.754;2023-06-26T14:34:52;31.30;99.90
13375;DHT22;6756;51.354;15.754;2023-06-26T14:39:03;31.10;99.90
13375;DHT22;6756;51.354;15.754;2023-06-26T14:43:04;30.80;99.90
13375;DHT22;6756;51.354;15.754;2023-06-26T14:47:05;30.70;99.90
13375;DHT22;6756;51.354;15.754;2023-06-26T14:51:06;30.80;99.90
13375;DHT22;6756;51.354;15.754;2023-06-26T14:55:07;30.90;99.90
13375;DHT22;6756;51.354;15.754;2023-06-26T14:59:08;31.10;99.90
13375;DHT22;6756;51.354;15.754;2023-06-26T15:03:09;31.30;99.90
13375;DHT22;6756;51.354;15.754;2023-06-26T15:07:10;31.30;99.90
13375;DHT22;6756;51.354;15.754;2023-06-26T15:11:11;31.30;99.90
13375;DHT22;6756;51.354;15.754;2023-06-26T15:15:13;31.30;99.90
13375;DHT22;6756;51.354;15.754;2023-06-26T15:19:14;31.50;99.90
13375;DHT22;6756;51.354;15.754;2023-06-26T15:23:15;31.60;99.90
13375;DHT22;6756;51.354;15.754;2023-06-26T15:27:16;31.60;99.90
13375;DHT22;6756;51.354;15.754;2023-06-26T15:31:17;31.70;99.90
13375;DHT22;6756;51.354;15.754;2023-06-26T15:35:18;31.80;99.90
13375;DHT22;6756;51.354;15.754;2023-06-26T15:39:22;31.80;99.90
13375;DHT22;6756;51.354;15.754;2023-06-26T15:43:23;31.80;99.90
13375;DHT22;6756;51.354;15.754;2023-06-26T15:47:24;31.70;99.90
13375;DHT22;6756;51.354;15.754;2023-06-26T15:51:25;31.60;99.90
13375;DHT22;6756;51.354;15.754;2023-06-26T15:55:26;31.50;99.90
13375;DHT22;6756;51.354;15.754;2023-06-26T15:59:27;31.20;99.90
13375;DHT22;6756;51.354;15.754;2023-06-26T16:03:28;31.00;99.90
13375;DHT22;6756;51.354;15.754;2023-06-26T16:07:29;30.90;99.90
13375;DHT22;6756;51.354;15.754;2023-06-26T16:11:31;30.90;99.90
13375;DHT22;6756;51.354;15.754;2023-06-26T16:15:34;31.00;99.90
13375;DHT22;6756;51.354;15.754;2023-06-26T16:19:35;31.00;99.90
13375;DHT22;6756;51.354;15.754;2023-06-26T16:23:36;30.90;99.90
13375;DHT22;6756;51.354;15.754;2023-06-26T16:27:37;30.80;99.90
13375;DHT22;6756;51.354;15.754;2023-06-26T16:31:38;30.50;99.90
13375;DHT22;6756;51.354;15.754;2023-06-26T16:35:39;30.30;99.90
13375;DHT22;6756;51.354;15.754;2023-06-26T16:39:40;30.20;99.90
13375;DHT22;6756;51.354;15.754;2023-06-26T16:43:45;30.40;99.90
13375;DHT22;6756;51.354;15.754;2023-06-26T16:47:46;30.50;99.90
13375;DHT22;6756;51.354;15.754;2023-06-26T16:51:47;30.60;99.90
13375;DHT22;6756;51.354;15.754;2023-06-26T16:55:48;30.60;99.90
13375;DHT22;6756;51.354;15.754;2023-06-26T16:59:50;30.60;99.90
13375;DHT22;6756;51.354;15.754;2023-06-26T17:03:50;30.60;99.90
13375;DHT22;6756;51.354;15.754;2023-06-26T17:07:52;30.60;99.90
13375;DHT22;6756;51.354;15.754;2023-06-26T17:11:53;30.50;99.90
13375;DHT22;6756;51.354;15.754;2023-06-26T17:15:54;30.40;99.90
13375;DHT22;6756;51.354;15.754;2023-06-26T17:19:55;30.10;99.90
13375;DHT22;6756;51.354;15.754;2023-06-26T17:23:56;29.90;99.90
13375;DHT22;6756;51.354;15.754;2023-06-26T17:27:58;29.60;99.90
13375;DHT22;6756;51.354;15.754;2023-06-26T17:31:59;29.30;99.90
13375;DHT22;6756;51.354;15.754;2023-06-26T17:36:00;29.00;99.90
13375;DHT22;6756;51.354;15.754;2023-06-26T17:40:01;28.80;99.90
13375;DHT22;6756;51.354;15.754;2023-06-26T17:44:09;28.50;99.90
13375;DHT22;6756;51.354;15.754;2023-06-26T17:48:13;28.20;99.90
13375;DHT22;6756;51.354;15.754;2023-06-26T17:52:14;27.90;99.90
13375;DHT22;6756;51.354;15.754;2023-06-26T17:56:15;27.70;99.90
13375;DHT22;6756;51.354;15.754;2023-06-26T18:00:16;27.40;99.90
13375;DHT22;6756;51.354;15.754;2023-06-26T18:04:17;27.20;99.90
13375;DHT22;6756;51.354;15.754;2023-06-26T18:08:18;27.00;99.90
13375;DHT22;6756;51.354;15.754;2023-06-26T18:12:22;25.50;99.90
13375;DHT22;6756;51.354;15.754;2023-06-26T18:16:23;24.40;99.90
13375;DHT22;6756;51.354;15.754;2023-06-26T18:20:24;23.70;99.90
13375;DHT22;6756;51.354;15.754;2023-06-26T18:24:26;22.50;1.00
13375;DHT22;6756;51.354;15.754;2023-06-26T18:28:27;20.80;1.00
13375;DHT22;6756;51.354;15.754;2023-06-26T18:32:30;20.00;99.90
13375;DHT22;6756;51.354;15.754;2023-06-26T18:36:31;19.60;1.00
13375;DHT22;6756;51.354;15.754;2023-06-26T18:40:34;19.50;40.10
13375;DHT22;6756;51.354;15.754;2023-06-26T18:44:35;19.50;99.90
13375;DHT22;6756;51.354;15.754;2023-06-26T18:48:37;19.40;99.90
13375;DHT22;6756;51.354;15.754;2023-06-26T18:52:38;19.40;99.90
13375;DHT22;6756;51.354;15.754;2023-06-26T18:56:42;19.50;99.90
13375;DHT22;6756;51.354;15.754;2023-06-26T19:00:43;19.60;99.90
13375;DHT22;6756;51.354;15.754;2023-06-26T19:04:44;19.60;99.90
13375;DHT22;6756;51.354;15.754;2023-06-26T19:08:46;19.40;52.30
13375;DHT22;6756;51.354;15.754;2023-06-26T19:12:47;19.20;8.00
13375;DHT22;6756;51.354;15.754;2023-06-26T19:16:49;19.00;99.90
13375;DHT22;6756;51.354;15.754;2023-06-26T19:20:50;18.80;99.90
13375;DHT22;6756;51.354;15.754;2023-06-26T19:24:51;18.50;99.90
13375;DHT22;6756;51.354;15.754;2023-06-26T19:28:52;18.40;99.90
13375;DHT22;6756;51.354;15.754;2023-06-26T19:32:53;18.30;99.90
13375;DHT22;6756;51.354;15.754;2023-06-26T19:36:54;18.20;99.90
13375;DHT22;6756;51.354;15.754;2023-06-26T19:40:56;18.20;99.90
13375;DHT22;6756;51.354;15.754;2023-06-26T19:44:57;18.20;99.90
13375;DHT22;6756;51.354;15.754;2023-06-26T19:48:58;18.20;99.90
13375;DHT22;6756;51.354;15.754;2023-06-26T19:52:59;18.20;99.90
13375;DHT22;6756;51.354;15.754;2023-06-26T19:57:01;18.20;99.90
13375;DHT22;6756;51.354;15.754;2023-06-26T20:01:02;18.20;99.90
13375;DHT22;6756;51.354;15.754;2023-06-26T20:05:04;18.20;99.90
13375;DHT22;6756;51.354;15.754;2023-06-26T20:09:06;18.20;99.90
13375;DHT22;6756;51.354;15.754;2023-06-26T20:13:07;18.20;99.90
13375;DHT22;6756;51.354;15.754;2023-06-26T20:17:09;18.30;99.90
13375;DHT22;6756;51.354;15.754;2023-06-26T20:21:10;18.30;99.90
13375;DHT22;6756;51.354;15.754;2023-06-26T20:25:15;18.30;99.90
13375;DHT22;6756;51.354;15.754;2023-06-26T20:29:16;18.20;99.90
13375;DHT22;6756;51.354;15.754;2023-06-26T20:33:20;18.10;99.90
13375;DHT22;6756;51.354;15.754;2023-06-26T20:37:21;18.00;99.90
13375;DHT22;6756;51.354;15.754;2023-06-26T20:41:22;18.00;99.90
13375;DHT22;6756;51.354;15.754;2023-06-26T20:45:24;18.00;99.90
13375;DHT22;6756;51.354;15.754;2023-06-26T20:49:27;17.90;99.90
13375;DHT22;6756;51.354;15.754;2023-06-26T20:53:28;17.90;99.90
13375;DHT22;6756;51.354;15.754;2023-06-26T20:57:29;17.90;99.90
13375;DHT22;6756;51.354;15.754;2023-06-26T21:01:33;17.90;99.90
13375;DHT22;6756;51.354;15.754;2023-06-26T21:05:35;17.90;99.90
13375;DHT22;6756;51.354;15.754;2023-06-26T21:09:36;17.80;99.90
13375;DHT22;6756;51.354;15.754;2023-06-26T21:13:38;17.80;99.90
13375;DHT22;6756;51.354;15.754;2023-06-26T21:17:39;17.80;99.90
13375;DHT22;6756;51.354;15.754;2023-06-26T21:21:39;17.70;99.90
13375;DHT22;6756;51.354;15.754;2023-06-26T21:25:42;17.70;99.90
13375;DHT22;6756;51.354;15.754;2023-06-26T21:29:43;17.70;99.90
13375;DHT22;6756;51.354;15.754;2023-06-26T21:33:44;17.70;99.90
13375;DHT22;6756;51.354;15.754;2023-06-26T21:37:45;17.80;99.90
13375;DHT22;6756;51.354;15.754;2023-06-26T21:41:46;17.80;99.90
13375;DHT22;6756;51.354;15.754;2023-06-26T21:45:48;17.80;99.90
13375;DHT22;6756;51.354;15.754;2023-06-26T21:49:50;17.80;99.90
13375;DHT22;6756;51.354;15.754;2023-06-26T21:53:52;17.80;99.90
13375;DHT22;6756;51.354;15.754;2023-06-26T21:57:53;17.80;99.90
13375;DHT22;6756;51.354;15.754;2023-06-26T22:01:54;17.80;99.90
13375;DHT22;6756;51.354;15.754;2023-06-26T22:05:55;17.70;99.90
13375;DHT22;6756;51.354;15.754;2023-06-26T22:09:56;17.70;99.90
13375;DHT22;6756;51.354;15.754;2023-06-26T22:13:57;17.60;99.90
13375;DHT22;6756;51.354;15.754;2023-06-26T22:17:58;17.50;99.90
13375;DHT22;6756;51.354;15.754;2023-06-26T22:21:59;17.40;99.90
13375;DHT22;6756;51.354;15.754;2023-06-26T22:26:00;17.40;99.90
13375;DHT22;6756;51.354;15.754;2023-06-26T22:30:02;17.30;99.90
13375;DHT22;6756;51.354;15.754;2023-06-26T22:34:03;17.30;99.90
13375;DHT22;6756;51.354;15.754;2023-06-26T22:38:04;17.20;99.90
13375;DHT22;6756;51.354;15.754;2023-06-26T22:42:06;17.10;99.90
13375;DHT22;6756;51.354;15.754;2023-06-26T22:46:07;17.10;99.90
13375;DHT22;6756;51.354;15.754;2023-06-26T22:50:08;17.10;99.90
13375;DHT22;6756;51.354;15.754;2023-06-26T22:54:10;17.10;99.90
13375;DHT22;6756;51.354;15.754;2023-06-26T22:58:11;17.00;99.90
13375;DHT22;6756;51.354;15.754;2023-06-26T23:02:12;17.00;99.90
13375;DHT22;6756;51.354;15.754;2023-06-26T23:06:13;17.00;99.90
13375;DHT22;6756;51.354;15.754;2023-06-26T23:10:22;17.00;99.90
13375;DHT22;6756;51.354;15.754;2023-06-26T23:14:27;17.00;99.90
13375;DHT22;6756;51.354;15.754;2023-06-26T23:18:30;17.00;99.90
13375;DHT22;6756;51.354;15.754;2023-06-26T23:22:31;17.00;99.90
13375;DHT22;6756;51.354;15.754;2023-06-26T23:26:35;17.10;99.90
13375;DHT22;6756;51.354;15.754;2023-06-26T23:30:38;17.10;99.90
13375;DHT22;6756;51.354;15.754;2023-06-26T23:34:43;17.20;99.90
13375;DHT22;6756;51.354;15.754;2023-06-26T23:38:44;17.20;99.90
13375;DHT22;6756;51.354;15.754;2023-06-26T23:42:45;17.20;99.90
13375;DHT22;6756;51.354;15.754;2023-06-26T23:46:46;17.20;99.90
13375;DHT22;6756;51.354;15.754;2023-06-26T23:50:47;17.20;99.90
13375;DHT22;6756;51.354;15.754;2023-06-26T23:54:48;17.20;99.90
13375;DHT22;6756;51.354;15.754;2023-06-26T23:58:50;17.20;99.90
